Time;durP1;ratioP1;P1;durP2;ratioP2;P2;SDS_P1;SDS_P2;PMS_P1;PMS_P2;Temp;Humidity;BMP_temperature;BMP_pressure;BME280_temperature;BME280_humidity;BME280_pressure;Samples;Min_cycle;Max_cycle;Signal;HPM_P1;HPM_P2
2023/04/23 00:01:13;;;;;;;0.00;0.00;;;13.70;99.90;;;;;;6248728;22;20074;-91
2023/04/23 00:03:41;;;;;;;0.00;0.00;;;13.60;99.90;;;;;;6248589;22;20035;-91
2023/04/23 00:06:11;;;;;;;0.00;0.00;;;13.60;99.90;;;;;;6248835;22;20014;-91
2023/04/23 00:08:39;;;;;;;0.00;0.00;;;13.60;99.90;;;;;;6247588;22;20008;-90
2023/04/23 00:11:05;;;;;;;0.00;0.00;;;13.60;99.90;;;;;;6248078;22;20003;-92
2023/04/23 00:13:31;;;;;;;0.00;0.00;;;13.60;99.90;;;;;;6249222;22;20362;-90
2023/04/23 00:15:57;;;;;;;0.00;0.00;;;13.60;99.90;;;;;;6249206;22;20011;-92
2023/04/23 00:18:22;;;;;;;0.00;0.00;;;13.50;99.90;;;;;;6249283;22;20003;-93
2023/04/23 00:20:48;;;;;;;0.00;0.00;;;13.50;99.90;;;;;;6250940;22;20035;-90
2023/04/23 00:23:14;;;;;;;0.00;0.00;;;13.50;99.90;;;;;;6250542;22;20004;-90
2023/04/23 00:25:39;;;;;;;0.00;0.00;;;13.40;99.90;;;;;;6250907;22;20026;-91
2023/04/23 00:28:05;;;;;;;0.00;0.00;;;;;;;;;;6250589;22;20000;-90
2023/04/23 00:30:31;;;;;;;0.00;0.00;;;;;;;;;;6252399;22;20003;-88
2023/04/23 00:32:56;;;;;;;0.10;0.10;;;13.30;99.90;;;;;;6251150;22;20039;-92
2023/04/23 00:35:22;;;;;;;0.00;0.00;;;14.60;99.90;;;;;;6250360;22;20019;-91
2023/04/23 00:37:48;;;;;;;0.00;0.00;;;13.20;99.90;;;;;;6250538;22;19996;-91
2023/04/23 00:40:13;;;;;;;0.00;0.00;;;13.20;99.90;;;;;;6250806;22;20381;-90
2023/04/23 00:42:39;;;;;;;0.00;0.00;;;13.10;99.90;;;;;;6251772;22;20082;-91
2023/04/23 00:45:07;;;;;;;0.00;0.00;;;13.00;99.90;;;;;;6251623;22;20090;-91
2023/04/23 00:47:34;;;;;;;0.00;0.00;;;13.00;99.90;;;;;;6237905;22;20016;-90
2023/04/23 00:50:00;;;;;;;0.00;0.00;;;13.00;99.90;;;;;;6251420;22;20461;-90
2023/04/23 00:52:27;;;;;;;0.00;0.00;;;;;;;;;;6250854;22;20014;-90
2023/04/23 00:54:53;;;;;;;0.00;0.00;;;13.00;99.90;;;;;;6250337;22;20446;-91
2023/04/23 00:57:19;;;;;;;0.00;0.00;;;12.90;99.90;;;;;;6250920;22;20036;-91
2023/04/23 00:59:45;;;;;;;0.00;0.00;;;13.00;99.90;;;;;;6250727;22;20004;-91
2023/04/23 01:02:11;;;;;;;0.00;0.00;;;13.80;99.90;;;;;;6250706;22;20326;-92
2023/04/23 01:04:37;;;;;;;0.00;0.00;;;12.90;99.90;;;;;;6251052;22;20066;-91
2023/04/23 01:07:03;;;;;;;0.00;0.00;;;;;;;;;;6249850;22;20004;-91
2023/04/23 01:09:31;;;;;;;0.00;0.00;;;12.90;99.90;;;;;;6250155;22;20447;-91
2023/04/23 01:11:57;;;;;;;0.00;0.00;;;12.80;99.90;;;;;;6250577;22;20000;-92
2023/04/23 01:14:22;;;;;;;0.00;0.00;;;12.90;99.90;;;;;;6249944;22;20007;-92
2023/04/23 01:16:48;;;;;;;0.00;0.00;;;12.90;99.90;;;;;;6250511;22;20008;-91
2023/04/23 01:19:15;;;;;;;0.00;0.00;;;12.90;99.90;;;;;;6250333;22;20423;-92
2023/04/23 01:21:41;;;;;;;0.00;0.00;;;;;;;;;;6249977;22;20320;-91
2023/04/23 01:24:08;;;;;;;0.00;0.00;;;12.90;99.90;;;;;;6250172;22;20030;-91
2023/04/23 01:26:34;;;;;;;0.00;0.00;;;;;;;;;;6250209;22;20016;-91
2023/04/23 01:29:00;;;;;;;0.00;0.00;;;;;;;;;;6250709;22;20465;-91
2023/04/23 01:31:27;;;;;;;0.00;0.00;;;12.80;99.90;;;;;;6249600;22;20038;-91
2023/04/23 01:33:56;;;;;;;0.00;0.00;;;12.80;99.90;;;;;;6250954;22;20014;-92
2023/04/23 01:36:25;;;;;;;0.00;0.00;;;12.70;99.90;;;;;;6250085;22;20026;-93
2023/04/23 01:38:52;;;;;;;0.00;0.00;;;12.70;99.90;;;;;;6252162;22;19999;-92
2023/04/23 01:41:18;;;;;;;0.00;0.00;;;;;;;;;;6251503;22;20335;-92
2023/04/23 01:43:45;;;;;;;0.00;0.00;;;;;;;;;;6250925;22;20033;-93
2023/04/23 01:46:11;;;;;;;0.00;0.00;;;;;;;;;;6251136;22;20095;-92
2023/04/23 01:48:37;;;;;;;0.00;0.00;;;;;;;;;;6250614;22;20339;-91
2023/04/23 01:51:03;;;;;;;0.00;0.00;;;;;;;;;;6250669;22;20011;-92
2023/04/23 01:53:29;;;;;;;0.00;0.00;;;;;;;;;;6250479;22;20357;-92
2023/04/23 01:55:55;;;;;;;0.00;0.00;;;;;;;;;;6250234;22;20079;-91
2023/04/23 01:58:22;;;;;;;0.00;0.00;;;12.90;99.90;;;;;;6250845;22;20067;-92
2023/04/23 02:00:49;;;;;;;0.00;0.00;;;12.90;99.90;;;;;;6250831;22;20031;-92
2023/04/23 02:03:17;;;;;;;0.00;0.00;;;12.90;99.90;;;;;;6250544;22;20004;-91
2023/04/23 02:05:44;;;;;;;0.00;0.00;;;;;;;;;;6250731;22;20012;-92
2023/04/23 02:08:12;;;;;;;0.00;0.00;;;12.80;99.90;;;;;;6250974;22;20000;-91
2023/04/23 02:10:53;;;;;;;0.00;0.00;;;12.90;99.90;;;;;;6225863;22;20012;-91
2023/04/23 02:13:23;;;;;;;0.00;0.00;;;12.80;99.90;;;;;;6250504;22;20003;-90
2023/04/23 02:15:49;;;;;;;0.00;0.00;;;;;;;;;;6250572;22;20008;-92
2023/04/23 02:18:15;;;;;;;0.00;0.00;;;;;;;;;;6250609;22;20046;-91
2023/04/23 02:20:48;;;;;;;0.00;0.00;;;;;;;;;;6225687;22;20000;-90
2023/04/23 02:23:34;;;;;;;0.00;0.00;;;12.80;99.90;;;;;;6254252;22;20034;-91
2023/04/23 02:26:01;;;;;;;0.00;0.00;;;;;;;;;;6250487;22;20042;-90
2023/04/23 02:28:27;;;;;;;0.00;0.00;;;;;;;;;;6250751;22;20011;-91
2023/04/23 02:30:53;;;;;;;0.00;0.00;;;;;;;;;;6250373;22;20014;-90
2023/04/23 02:33:26;;;;;;;0.00;0.00;;;12.70;99.90;;;;;;6250359;22;20023;-91
2023/04/23 02:35:54;;;;;;;0.00;0.00;;;;;;;;;;6277811;22;20079;-90
2023/04/23 02:38:23;;;;;;;0.00;0.00;;;12.80;99.90;;;;;;6250354;22;20003;-90
2023/04/23 02:40:49;;;;;;;0.00;0.00;;;;;;;;;;6250267;22;20079;-90
2023/04/23 02:43:17;;;;;;;0.00;0.00;;;;;;;;;;6250184;22;20049;-92
2023/04/23 02:45:43;;;;;;;0.00;0.00;;;;;;;;;;6250016;22;20035;-90
2023/04/23 02:48:09;;;;;;;0.00;0.00;;;;;;;;;;6250086;22;20386;-90
2023/04/23 02:50:42;;;;;;;0.00;0.00;;;12.70;99.90;;;;;;6250480;22;20078;-90
2023/04/23 02:53:27;;;;;;;0.00;0.00;;;;;;;;;;6277202;22;20008;-91
2023/04/23 02:55:55;;;;;;;0.00;0.00;;;12.60;99.90;;;;;;6250040;22;20015;-91
2023/04/23 02:58:21;;;;;;;0.00;0.00;;;;;;;;;;6200186;22;20519;-91
2023/04/23 03:00:47;;;;;;;0.00;0.00;;;;;;;;;;6248731;22;20335;-89
2023/04/23 03:03:13;;;;;;;0.00;0.00;;;;;;;;;;6249914;22;20010;-91
2023/04/23 03:05:39;;;;;;;0.00;0.00;;;;;;;;;;6249967;22;20334;-91
2023/04/23 03:08:05;;;;;;;0.00;0.00;;;;;;;;;;6249682;22;20026;-91
2023/04/23 03:10:31;;;;;;;0.00;0.00;;;;;;;;;;6249480;22;20062;-91
2023/04/23 03:12:57;;;;;;;0.00;0.00;;;;;;;;;;6249463;22;20008;-90
2023/04/23 03:15:26;;;;;;;0.00;0.00;;;12.40;99.90;;;;;;6249353;22;20091;-91
2023/04/23 03:17:52;;;;;;;0.00;0.00;;;;;;;;;;6249683;22;20083;-91
2023/04/23 03:20:25;;;;;;;0.00;0.00;;;12.40;99.90;;;;;;6249894;22;20002;-90
2023/04/23 03:22:52;;;;;;;0.00;0.00;;;;;;;;;;6248730;22;20007;-91
2023/04/23 03:25:21;;;;;;;0.00;0.00;;;;;;;;;;6276751;22;20007;-90
2023/04/23 03:27:47;;;;;;;0.00;0.00;;;;;;;;;;6247513;22;20054;-92
2023/04/23 03:30:13;;;;;;;0.00;0.00;;;;;;;;;;6249636;22;20000;-91
2023/04/23 03:32:44;;;;;;;0.00;0.00;;;12.30;99.90;;;;;;6250065;22;20077;-91
2023/04/23 03:35:10;;;;;;;0.00;0.00;;;;;;;;;;6249656;22;20411;-90
2023/04/23 03:37:36;;;;;;;0.00;0.00;;;;;;;;;;6249517;22;20031;-90
2023/04/23 03:40:06;;;;;;;0.00;0.00;;;;;;;;;;6249710;22;20427;-92
2023/04/23 03:42:54;;;;;;;0.00;0.00;;;12.00;99.90;;;;;;6249588;22;20003;-91
2023/04/23 03:45:21;;;;;;;0.00;0.00;;;11.90;99.90;;;;;;6250353;22;20000;-91
2023/04/23 03:47:47;;;;;;;0.00;0.00;;;;;;;;;;6249846;22;20090;-90
2023/04/23 03:50:13;;;;;;;0.00;0.00;;;;;;;;;;6249737;22;20382;-90
2023/04/23 03:52:39;;;;;;;0.00;0.00;;;;;;;;;;6249503;22;20000;-90
2023/04/23 03:55:06;;;;;;;0.00;0.00;;;11.70;99.90;;;;;;6249472;22;20003;-92
2023/04/23 03:57:33;;;;;;;0.00;0.00;;;;;;;;;;6276411;22;20007;-91
2023/04/23 04:00:01;;;;;;;0.00;0.00;;;;;;;;;;6249646;22;19999;-91
2023/04/23 04:02:27;;;;;;;0.00;0.00;;;;;;;;;;6248679;22;20007;-91
2023/04/23 04:05:00;;;;;;;0.00;0.00;;;11.90;99.90;;;;;;6224397;22;20020;-91
2023/04/23 04:07:29;;;;;;;0.10;0.10;;;;;;;;;;6271305;22;20075;-91
2023/04/23 04:09:55;;;;;;;0.00;0.00;;;;;;;;;;6249575;22;20003;-91
2023/04/23 04:12:21;;;;;;;0.00;0.00;;;;;;;;;;6249649;22;20316;-91
2023/04/23 04:14:48;;;;;;;0.00;0.00;;;;;;;;;;6249366;22;20000;-90
2023/04/23 04:17:15;;;;;;;0.00;0.00;;;11.90;99.90;;;;;;6276965;22;20000;-90
2023/04/23 04:19:42;;;;;;;0.00;0.00;;;;;;;;;;6249962;22;20078;-91
2023/04/23 04:22:10;;;;;;;0.00;0.00;;;11.90;99.90;;;;;;6248682;22;20023;-90
2023/04/23 04:24:52;;;;;;;0.00;0.00;;;11.90;99.90;;;;;;6225043;22;20003;-91
2023/04/23 04:30:46;;;;;;;0.00;0.00;;;;;;;;;;6277224;22;20007;-91
2023/04/23 04:33:17;;;;;;;0.00;0.00;;;11.80;99.90;;;;;;6250237;22;20087;-91
2023/04/23 04:35:44;;;;;;;0.00;0.00;;;;;;;;;;6246618;22;20027;-90
2023/04/23 04:38:10;;;;;;;0.10;0.10;;;;;;;;;;6249834;22;20007;-90
2023/04/23 04:40:36;;;;;;;0.00;0.00;;;;;;;;;;6250878;22;20016;-89
2023/04/23 04:43:05;;;;;;;0.00;0.00;;;11.80;99.90;;;;;;6250705;22;20000;-90
2023/04/23 04:45:31;;;;;;;0.00;0.00;;;;;;;;;;6247373;22;20079;-89
2023/04/23 04:47:57;;;;;;;0.00;0.00;;;;;;;;;;6246308;22;20004;-89
2023/04/23 04:50:23;;;;;;;0.00;0.00;;;;;;;;;;6248121;22;20344;-90
2023/04/23 04:52:49;;;;;;;0.00;0.00;;;;;;;;;;6246987;22;20010;-90
2023/04/23 04:55:15;;;;;;;0.00;0.00;;;;;;;;;;6249279;22;20094;-90
2023/04/23 04:57:41;;;;;;;0.00;0.00;;;;;;;;;;6250985;22;20000;-90
2023/04/23 05:00:33;;;;;;;0.00;0.00;;;11.90;99.90;;;;;;6249254;22;20054;-90
2023/04/23 05:02:59;;;;;;;0.00;0.00;;;;;;;;;;6242194;22;20038;-90
2023/04/23 05:05:25;;;;;;;0.00;0.00;;;11.70;99.90;;;;;;6249676;22;20013;-92
2023/04/23 05:07:53;;;;;;;0.00;0.00;;;11.80;99.90;;;;;;6252702;22;20066;-90
2023/04/23 05:10:19;;;;;;;0.00;0.00;;;11.70;99.90;;;;;;6251897;22;20030;-90
2023/04/23 05:12:45;;;;;;;0.00;0.00;;;11.70;99.90;;;;;;6278037;22;20006;-89
2023/04/23 05:15:12;;;;;;;0.00;0.00;;;11.60;99.90;;;;;;6248978;22;20337;-91
2023/04/23 05:17:38;;;;;;;0.00;0.00;;;11.60;99.90;;;;;;6250224;22;20008;-90
2023/04/23 05:20:04;;;;;;;0.00;0.00;;;11.80;99.90;;;;;;6249156;22;19996;-89
2023/04/23 05:22:30;;;;;;;0.00;0.00;;;11.80;99.90;;;;;;6248293;22;20078;-90
2023/04/23 05:24:56;;;;;;;0.00;0.00;;;;;;;;;;6249540;22;20396;-90
2023/04/23 05:27:21;;;;;;;0.00;0.00;;;11.80;99.90;;;;;;6249758;22;20077;-91
2023/04/23 05:29:47;;;;;;;0.00;0.00;;;13.30;99.90;;;;;;6248428;22;20328;-90
2023/04/23 05:32:13;;;;;;;0.00;0.00;;;;;;;;;;6249937;22;20000;-89
2023/04/23 05:34:39;;;;;;;0.00;0.00;;;;;;;;;;6249370;22;20475;-90
2023/04/23 05:37:05;;;;;;;0.00;0.00;;;11.90;99.90;;;;;;6250226;22;20011;-89
2023/04/23 05:39:30;;;;;;;0.00;0.00;;;11.80;99.90;;;;;;6247520;22;20003;-91
2023/04/23 05:41:56;;;;;;;0.00;0.00;;;11.90;99.90;;;;;;6249881;22;20006;-89
2023/04/23 05:44:23;;;;;;;0.00;0.00;;;;;;;;;;6278190;22;20066;-90
2023/04/23 05:46:49;;;;;;;0.00;0.00;;;;;;;;;;6249566;22;20012;-91
2023/04/23 05:49:15;;;;;;;0.10;0.10;;;;;;;;;;6250526;22;20090;-88
2023/04/23 05:51:41;;;;;;;0.00;0.00;;;;;;;;;;6249065;22;20070;-90
2023/04/23 05:54:06;;;;;;;0.00;0.00;;;12.30;99.90;;;;;;6251576;22;20004;-90
2023/04/23 05:56:32;;;;;;;0.00;0.00;;;;;;;;;;6252646;22;19999;-89
2023/04/23 05:58:58;;;;;;;0.00;0.00;;;;;;;;;;6250081;22;20010;-89
2023/04/23 06:01:24;;;;;;;0.00;0.00;;;;;;;;;;6251445;22;20010;-90
2023/04/23 06:03:49;;;;;;;0.00;0.00;;;12.40;99.90;;;;;;6249669;22;20007;-90
2023/04/23 06:06:15;;;;;;;0.00;0.00;;;;;;;;;;6250896;22;20062;-90
2023/04/23 06:08:41;;;;;;;0.00;0.00;;;12.50;99.90;;;;;;6251864;22;20047;-90
2023/04/23 06:11:07;;;;;;;0.00;0.00;;;;;;;;;;6250585;22;20010;-88
2023/04/23 06:13:35;;;;;;;0.00;0.00;;;12.60;99.90;;;;;;6251588;22;20006;-90
2023/04/23 06:16:01;;;;;;;0.00;0.00;;;12.70;99.90;;;;;;6251249;22;20004;-89
2023/04/23 06:18:26;;;;;;;0.00;0.00;;;13.40;99.90;;;;;;6248593;22;20006;-90
2023/04/23 06:20:52;;;;;;;0.00;0.00;;;12.80;99.90;;;;;;6250680;22;19996;-89
2023/04/23 06:23:17;;;;;;;0.00;0.00;;;12.80;99.90;;;;;;6249048;22;20003;-89
2023/04/23 06:25:43;;;;;;;0.00;0.00;;;12.70;99.90;;;;;;6249144;22;20031;-89
2023/04/23 06:28:09;;;;;;;0.00;0.00;;;;;;;;;;6248854;22;20003;-90
2023/04/23 06:30:35;;;;;;;0.00;0.00;;;;;;;;;;6249141;22;20000;-90
2023/04/23 06:33:01;;;;;;;0.00;0.00;;;13.10;99.90;;;;;;6249522;22;20003;-91
2023/04/23 06:35:26;;;;;;;0.00;0.00;;;13.20;99.90;;;;;;6245452;22;20039;-90
2023/04/23 06:37:52;;;;;;;0.00;0.00;;;13.20;99.90;;;;;;6248034;22;20031;-92
2023/04/23 06:40:17;;;;;;;0.00;0.00;;;13.20;99.90;;;;;;6250616;22;20483;-88
2023/04/23 06:42:44;;;;;;;0.00;0.00;;;;;;;;;;6249402;22;20004;-90
2023/04/23 06:45:10;;;;;;;0.00;0.00;;;13.20;99.90;;;;;;6247913;22;20006;-91
2023/04/23 06:47:36;;;;;;;0.00;0.00;;;;;;;;;;6248018;22;20086;-90
2023/04/23 06:50:02;;;;;;;0.00;0.00;;;13.00;99.90;;;;;;6250820;22;20012;-91
2023/04/23 06:52:27;;;;;;;0.00;0.00;;;12.80;99.90;;;;;;6251717;22;20015;-90
2023/04/23 06:54:53;;;;;;;0.00;0.00;;;12.80;99.90;;;;;;6274804;22;20004;-90
2023/04/23 06:57:19;;;;;;;0.00;0.00;;;12.90;99.90;;;;;;6274155;22;20000;-90
2023/04/23 06:59:44;;;;;;;0.00;0.00;;;13.00;99.90;;;;;;6247525;22;20000;-89
2023/04/23 07:02:10;;;;;;;0.00;0.00;;;;;;;;;;6247304;22;20344;-91
2023/04/23 07:04:36;;;;;;;0.00;0.00;;;;;;;;;;6250386;22;20453;-89
2023/04/23 07:07:02;;;;;;;0.00;0.00;;;;;;;;;;6249522;22;20054;-90
2023/04/23 07:09:28;;;;;;;0.00;0.00;;;;;;;;;;6245136;22;20020;-91
2023/04/23 07:11:54;;;;;;;0.00;0.00;;;;;;;;;;6246795;22;20035;-90
2023/04/23 07:14:20;;;;;;;0.00;0.00;;;;;;;;;;6245597;22;20017;-90
2023/04/23 07:16:45;;;;;;;0.00;0.00;;;13.70;99.90;;;;;;6273437;22;20010;-90
2023/04/23 07:19:11;;;;;;;0.00;0.00;;;13.90;99.90;;;;;;6250139;22;19995;-90
2023/04/23 07:21:37;;;;;;;0.00;0.00;;;;;;;;;;6279000;22;20006;-90
2023/04/23 07:24:08;;;;;;;0.00;0.00;;;14.30;99.90;;;;;;6251634;22;20424;-89
2023/04/23 07:26:35;;;;;;;0.00;0.00;;;14.50;99.90;;;;;;6248916;22;20019;-90
2023/04/23 07:29:01;;;;;;;0.00;0.00;;;14.50;99.90;;;;;;6250827;22;20061;-91
2023/04/23 07:31:27;;;;;;;0.00;0.00;;;14.50;99.90;;;;;;6249552;22;20011;-90
2023/04/23 07:33:53;;;;;;;0.03;0.03;;;;;;;;;;6278757;22;20004;-91
2023/04/23 07:36:19;;;;;;;0.00;0.00;;;;;;;;;;6250830;22;20318;-91
2023/04/23 07:38:45;;;;;;;0.00;0.00;;;14.50;99.90;;;;;;6251203;22;20027;-90
2023/04/23 07:41:10;;;;;;;0.00;0.00;;;14.40;99.90;;;;;;6250168;22;20000;-89
2023/04/23 07:43:36;;;;;;;0.00;0.00;;;;;;;;;;6251206;22;20006;-90
2023/04/23 07:46:02;;;;;;;0.00;0.00;;;;;;;;;;6250553;22;20011;-90
2023/04/23 07:48:28;;;;;;;0.00;0.00;;;14.30;99.90;;;;;;6250853;22;20015;-89
2023/04/23 07:50:53;;;;;;;0.00;0.00;;;14.20;99.90;;;;;;6250811;22;19999;-91
2023/04/23 07:53:19;;;;;;;0.00;0.00;;;;;;;;;;6276646;22;20057;-90
2023/04/23 07:55:45;;;;;;;0.00;0.00;;;;;;;;;;6250327;22;20448;-91
2023/04/23 07:58:11;;;;;;;0.00;0.00;;;14.10;99.90;;;;;;6250699;22;20476;-90
2023/04/23 08:00:36;;;;;;;0.00;0.00;;;;;;;;;;6250170;22;19999;-90
2023/04/23 08:03:02;;;;;;;0.00;0.00;;;14.00;99.90;;;;;;6251676;22;20011;-90
2023/04/23 08:05:28;;;;;;;0.00;0.00;;;;;;;;;;6261753;22;20015;-91
2023/04/23 08:07:53;;;;;;;0.00;0.00;;;14.00;99.90;;;;;;6261865;22;20014;-92
2023/04/23 08:10:19;;;;;;;0.00;0.00;;;;;;;;;;6259478;22;20509;-91
2023/04/23 08:12:45;;;;;;;0.00;0.00;;;14.00;99.90;;;;;;6252934;22;20011;-90
2023/04/23 08:15:11;;;;;;;0.00;0.00;;;14.00;99.90;;;;;;6248577;22;20004;-90
2023/04/23 08:17:37;;;;;;;0.05;0.05;;;;;;;;;;6246069;22;20007;-91
2023/04/23 08:20:05;;;;;;;0.00;0.00;;;14.10;99.90;;;;;;6248591;22;20307;-90
2023/04/23 08:22:31;;;;;;;0.00;0.00;;;;;;;;;;6249146;22;19999;-90
2023/04/23 08:24:57;;;;;;;0.00;0.00;;;;;;;;;;6248822;22;20317;-90
2023/04/23 08:27:23;;;;;;;0.00;0.00;;;;;;;;;;6249309;22;20010;-90
2023/04/23 08:29:48;;;;;;;0.00;0.00;;;14.20;99.90;;;;;;6249148;22;20227;-90
2023/04/23 08:32:14;;;;;;;0.00;0.00;;;;;;;;;;6248261;22;20000;-90
2023/04/23 08:34:40;;;;;;;0.00;0.00;;;;;;;;;;6249673;22;20006;-90
2023/04/23 08:37:06;;;;;;;0.00;0.00;;;;;;;;;;6276097;22;20004;-90
2023/04/23 08:39:33;;;;;;;0.00;0.00;;;14.40;99.90;;;;;;6249132;22;20455;-90
2023/04/23 08:42:08;;;;;;;0.00;0.00;;;14.50;99.90;;;;;;6251404;22;20042;-89
2023/04/23 08:44:36;;;;;;;0.00;0.00;;;14.90;99.90;;;;;;6251734;22;20026;-90
2023/04/23 08:47:05;;;;;;;0.00;0.00;;;14.50;99.90;;;;;;6251615;22;20004;-90
2023/04/23 08:49:33;;;;;;;0.00;0.00;;;14.60;99.90;;;;;;6251802;22;20348;-90
2023/04/23 08:52:11;;;;;;;0.00;0.00;;;14.70;99.90;;;;;;6251462;22;20011;-89
2023/04/23 08:54:44;;;;;;;0.00;0.00;;;14.80;99.90;;;;;;6252519;22;20046;-90
2023/04/23 08:57:10;;;;;;;0.00;0.00;;;;;;;;;;6250597;22;20010;-90
2023/04/23 08:59:37;;;;;;;0.00;0.00;;;14.90;99.90;;;;;;6252005;22;20065;-90
2023/04/23 09:02:08;;;;;;;0.00;0.00;;;;;;;;;;6252895;22;19999;-90
2023/04/23 09:04:34;;;;;;;0.00;0.00;;;14.90;99.90;;;;;;6252537;22;20336;-90
2023/04/23 09:07:00;;;;;;;0.00;0.00;;;15.00;99.90;;;;;;6250995;22;20031;-91
2023/04/23 09:09:28;;;;;;;0.00;0.00;;;15.00;99.90;;;;;;6251202;22;20113;-90
2023/04/23 09:11:57;;;;;;;0.00;0.00;;;15.00;99.90;;;;;;6251228;22;20010;-90
2023/04/23 09:14:26;;;;;;;0.00;0.00;;;;;;;;;;6279264;22;20006;-89
2023/04/23 09:16:52;;;;;;;0.00;0.00;;;15.20;99.90;;;;;;6279983;22;20026;-91
2023/04/23 09:19:18;;;;;;;0.00;0.00;;;15.20;99.90;;;;;;6250821;22;20345;-90
2023/04/23 09:21:45;;;;;;;0.10;0.10;;;15.30;99.90;;;;;;6278389;22;20004;-91
2023/04/23 09:24:12;;;;;;;0.00;0.00;;;15.40;99.90;;;;;;6251172;22;20058;-90
2023/04/23 09:26:48;;;;;;;0.00;0.00;;;15.30;99.90;;;;;;6280151;22;20349;-90
2023/04/23 09:29:17;;;;;;;0.00;0.00;;;15.40;99.90;;;;;;6251873;22;20057;-91
2023/04/23 09:31:43;;;;;;;0.00;0.00;;;15.50;99.90;;;;;;6278323;22;20007;-90
2023/04/23 09:34:09;;;;;;;0.00;0.00;;;;;;;;;;6250263;22;20016;-88
2023/04/23 09:36:36;;;;;;;0.00;0.00;;;15.80;99.90;;;;;;6250114;22;20340;-90
2023/04/23 09:39:02;;;;;;;0.00;0.00;;;;;;;;;;6251013;22;20006;-89
2023/04/23 09:41:27;;;;;;;0.00;0.00;;;16.00;99.90;;;;;;6251013;22;20023;-90
2023/04/23 09:43:54;;;;;;;0.03;0.03;;;16.10;99.90;;;;;;6249023;22;19999;-90
2023/04/23 09:46:40;;;;;;;0.00;0.00;;;16.20;99.90;;;;;;6244783;22;20039;-91
2023/04/23 09:49:09;;;;;;;0.00;0.00;;;16.30;99.90;;;;;;6246078;22;20027;-91
2023/04/23 09:51:43;;;;;;;0.00;0.00;;;16.50;99.90;;;;;;6247010;22;20052;-90
2023/04/23 09:54:17;;;;;;;0.00;0.00;;;16.60;99.90;;;;;;6256588;22;20003;-90
2023/04/23 09:56:47;;;;;;;0.00;0.00;;;16.80;99.90;;;;;;6273214;22;20011;-89
2023/04/23 09:59:22;;;;;;;0.00;0.00;;;17.10;99.90;;;;;;6248970;22;20392;-92
2023/04/23 10:01:47;;;;;;;0.00;0.00;;;17.40;99.90;;;;;;6279412;22;20010;-91
2023/04/23 10:04:24;;;;;;;0.00;0.00;;;18.00;99.10;;;;;;6259572;22;20007;-93
2023/04/23 10:07:02;;;;;;;0.00;0.00;;;20.80;99.90;;;;;;6256434;22;20007;-92
2023/04/23 10:09:28;;;;;;;0.00;0.00;;;18.00;99.20;;;;;;6257835;22;20006;-92
2023/04/23 10:12:00;;;;;;;0.00;0.00;;;18.30;98.60;;;;;;6256832;22;20039;-91
2023/04/23 10:14:27;;;;;;;0.00;0.00;;;18.50;98.50;;;;;;6279416;22;20014;-89
2023/04/23 10:16:57;;;;;;;0.00;0.00;;;18.80;99.20;;;;;;6255235;22;20012;-91
2023/04/23 10:19:24;;;;;;;0.00;0.00;;;19.10;97.60;;;;;;6255527;22;19984;-89
2023/04/23 10:21:56;;;;;;;0.00;0.00;;;19.10;97.80;;;;;;6252279;22;20317;-90
2023/04/23 10:24:23;;;;;;;0.00;0.00;;;19.30;97.50;;;;;;6253078;22;20004;-91
2023/04/23 10:26:52;;;;;;;0.00;0.00;;;20.80;96.20;;;;;;6258277;22;20094;-91
2023/04/23 10:29:24;;;;;;;0.00;0.00;;;19.30;96.70;;;;;;6249167;22;20449;-92
2023/04/23 10:31:51;;;;;;;0.00;0.00;;;19.20;97.30;;;;;;6259351;22;20505;-92
2023/04/23 10:34:17;;;;;;;0.00;0.00;;;19.30;97.00;;;;;;6259648;22;20432;-89
2023/04/23 10:36:43;;;;;;;0.00;0.00;;;19.40;95.60;;;;;;6252692;22;20062;-91
2023/04/23 10:39:09;;;;;;;0.00;0.00;;;;;;;;;;6277735;22;20003;-91
2023/04/23 10:41:37;;;;;;;0.00;0.00;;;19.40;96.70;;;;;;6251497;22;20204;-91
2023/04/23 10:44:04;;;;;;;0.00;0.00;;;19.00;96.80;;;;;;6248941;22;20000;-90
2023/04/23 10:46:31;;;;;;;0.00;0.00;;;19.50;96.70;;;;;;6247122;22;20015;-92
2023/04/23 10:49:15;;;;;;;0.00;0.00;;;19.60;94.40;;;;;;6247651;22;20004;-90
2023/04/23 10:51:44;;;;;;;0.00;0.00;;;19.70;95.20;;;;;;6248760;22;20007;-90
2023/04/23 10:54:12;;;;;;;0.00;0.00;;;19.80;95.20;;;;;;6249130;22;20004;-90
2023/04/23 10:56:39;;;;;;;0.00;0.00;;;19.80;94.90;;;;;;6245976;22;20007;-91
2023/04/23 10:59:20;;;;;;;0.00;0.00;;;19.80;94.60;;;;;;6246865;22;20509;-91
2023/04/23 11:01:49;;;;;;;0.00;0.00;;;19.60;94.50;;;;;;6249094;22;20353;-90
2023/04/23 11:04:22;;;;;;;0.00;0.00;;;19.60;94.10;;;;;;6246201;22;20003;-89
2023/04/23 11:06:48;;;;;;;0.00;0.00;;;19.60;94.80;;;;;;6247494;22;20011;-91
2023/04/23 11:09:39;;;;;;;0.00;0.00;;;19.60;94.20;;;;;;6246516;22;20490;-89
2023/04/23 11:12:26;;;;;;;0.00;0.00;;;19.70;94.80;;;;;;6245801;22;20380;-90
2023/04/23 11:14:53;;;;;;;0.00;0.00;;;21.30;95.60;;;;;;6247930;22;20004;-90
2023/04/23 11:17:22;;;;;;;0.00;0.00;;;19.70;94.80;;;;;;6246341;22;20356;-90
2023/04/23 11:20:03;;;;;;;0.00;0.00;;;19.80;95.40;;;;;;6249988;22;20055;-90
2023/04/23 11:22:46;;;;;;;0.00;0.00;;;20.10;95.10;;;;;;6249474;22;20340;-90
2023/04/23 11:25:18;;;;;;;0.00;0.00;;;20.30;94.50;;;;;;6248155;22;20008;-90
2023/04/23 11:27:44;;;;;;;0.00;0.00;;;20.30;94.70;;;;;;6253151;22;20007;-89
2023/04/23 11:30:16;;;;;;;0.00;0.00;;;20.40;94.70;;;;;;6249302;22;20208;-89
2023/04/23 11:32:44;;;;;;;0.00;0.00;;;20.80;93.60;;;;;;6274886;22;20003;-89
2023/04/23 11:35:12;;;;;;;0.00;0.00;;;20.90;91.60;;;;;;6246974;22;20073;-91
2023/04/23 11:37:40;;;;;;;0.00;0.00;;;20.80;91.80;;;;;;6249050;22;20008;-89
2023/04/23 11:40:12;;;;;;;0.00;0.00;;;20.90;93.30;;;;;;6248547;22;20003;-90
2023/04/23 11:42:46;;;;;;;0.00;0.00;;;21.00;92.90;;;;;;6249439;22;20014;-89
2023/04/23 11:45:15;;;;;;;0.00;0.00;;;20.80;92.30;;;;;;6249122;22;20004;-89
2023/04/23 11:47:41;;;;;;;0.00;0.00;;;;;;;;;;6249750;22;20039;-90
2023/04/23 11:50:07;;;;;;;0.00;0.00;;;20.70;92.60;;;;;;6253845;22;20018;-90
2023/04/23 11:52:33;;;;;;;0.00;0.00;;;20.60;92.50;;;;;;6261649;22;20004;-91
2023/04/23 11:55:04;;;;;;;0.00;0.00;;;20.30;93.10;;;;;;6252359;22;20008;-90
2023/04/23 11:57:30;;;;;;;0.00;0.00;;;20.20;93.20;;;;;;6278506;22;20007;-89
2023/04/23 11:59:56;;;;;;;0.00;0.00;;;;;;;;;;6251650;22;20000;-90
2023/04/23 12:02:23;;;;;;;0.00;0.00;;;19.60;90.90;;;;;;6253235;22;20114;-90
2023/04/23 12:04:49;;;;;;;0.00;0.00;;;;;;;;;;6252613;22;20082;-91
2023/04/23 12:07:15;;;;;;;0.00;0.00;;;;;;;;;;6247146;22;20034;-90
2023/04/23 12:09:44;;;;;;;0.00;0.00;;;19.10;95.50;;;;;;6246144;22;20003;-90
2023/04/23 12:12:10;;;;;;;0.00;0.00;;;;;;;;;;6248226;22;20004;-90
2023/04/23 12:14:36;;;;;;;0.00;0.00;;;;;;;;;;6275068;22;20410;-90
2023/04/23 12:17:10;;;;;;;0.00;0.00;;;20.20;90.40;;;;;;6276237;22;20030;-91
2023/04/23 12:19:35;;;;;;;0.00;0.00;;;20.20;90.60;;;;;;6251848;22;20010;-90
2023/04/23 12:22:03;;;;;;;0.00;0.00;;;20.40;90.60;;;;;;6277674;22;20071;-91
2023/04/23 12:24:30;;;;;;;0.00;0.00;;;20.40;90.80;;;;;;6275693;22;20027;-89
2023/04/23 12:26:59;;;;;;;0.00;0.00;;;20.40;91.30;;;;;;6247099;22;20004;-89
2023/04/23 12:29:25;;;;;;;0.00;0.00;;;22.00;90.90;;;;;;6247395;22;20019;-91
2023/04/23 12:31:52;;;;;;;0.00;0.00;;;20.40;88.00;;;;;;6247650;22;20055;-89
2023/04/23 12:34:19;;;;;;;0.00;0.00;;;20.30;87.70;;;;;;6248658;22;20008;-91
2023/04/23 12:36:56;;;;;;;0.00;0.00;;;20.20;89.30;;;;;;6282285;22;20011;-92
2023/04/23 12:39:32;;;;;;;0.00;0.00;;;20.30;89.20;;;;;;6249233;22;20004;-90
2023/04/23 12:42:03;;;;;;;0.00;0.00;;;20.10;88.80;;;;;;6248986;22;20352;-89
2023/04/23 12:44:30;;;;;;;0.00;0.00;;;20.30;90.50;;;;;;6251732;22;20007;-92
2023/04/23 12:46:57;;;;;;;0.00;0.00;;;20.30;91.30;;;;;;6259434;22;20000;-92
2023/04/23 12:49:23;;;;;;;0.00;0.00;;;20.20;91.20;;;;;;6255898;22;20020;-91
2023/04/23 12:51:49;;;;;;;0.00;0.00;;;20.50;89.80;;;;;;6257722;22;20004;-90
2023/04/23 12:54:15;;;;;;;0.00;0.00;;;;;;;;;;6257592;22;20007;-91
2023/04/23 12:56:41;;;;;;;0.00;0.00;;;;;;;;;;6249589;22;20058;-91
2023/04/23 12:59:07;;;;;;;0.00;0.00;;;20.60;89.00;;;;;;6248718;22;20004;-91
2023/04/23 13:01:32;;;;;;;0.00;0.00;;;20.60;87.80;;;;;;6248576;22;20065;-89
2023/04/23 13:03:58;;;;;;;0.00;0.00;;;;;;;;;;6249844;22;20348;-91
2023/04/23 13:06:25;;;;;;;0.00;0.00;;;;;;;;;;6248168;22;20019;-90
2023/04/23 13:08:51;;;;;;;0.00;0.00;;;20.60;88.20;;;;;;6275748;22;20004;-90
2023/04/23 13:11:16;;;;;;;0.00;0.00;;;20.70;89.90;;;;;;6248215;22;20457;-91
2023/04/23 13:13:42;;;;;;;0.00;0.00;;;;;;;;;;6248042;22;20008;-89
2023/04/23 13:16:08;;;;;;;0.00;0.00;;;;;;;;;;6248362;22;20467;-90
2023/04/23 13:18:34;;;;;;;0.00;0.00;;;;;;;;;;6249142;22;20011;-91
2023/04/23 13:20:59;;;;;;;0.00;0.00;;;21.50;87.10;;;;;;6248056;22;20008;-92
2023/04/23 13:23:25;;;;;;;0.00;0.00;;;21.60;87.80;;;;;;6247472;22;20002;-91
2023/04/23 13:25:50;;;;;;;0.00;0.00;;;23.70;87.50;;;;;;6247905;22;20003;-91
2023/04/23 13:28:16;;;;;;;0.00;0.00;;;21.40;86.00;;;;;;6251540;22;20014;-91
2023/04/23 13:30:42;;;;;;;0.00;0.00;;;;;;;;;;6245360;22;20078;-92
2023/04/23 13:33:08;;;;;;;0.00;0.00;;;;;;;;;;6275226;22;20381;-91